Accueil
METAR-TAF:

METAR-TAF

Aéroports :

Santander, Espagne

Aéroport de Santander

latitude: 43-26N, longitude: 003-49W, altitude: 6 m

Observation

Le bulletin a été fait il y a 26 minutes, à 03:00 UTC
Vent 6 kt de sud/sud-ouest, variant entre sud et ouest/sud-ouest
Température 14°C
Humidité 77%
Pression 1011 hPa
Visibilité 10 km ou plus
Ciel couvert à une hauteur de 8600 ft

METAR: LEXJ 190300Z AUTO 21006KT 180V250 9999 OVC086 14/10 Q1011

Heure: 05:26 (03:26 UTC)

Prévision

Le bulletin a été fait il y a 1 heure et 26 minutes, à 02:00 UTC
Prévision valable du 19 à 03 UTC au 20 à 03 UTC
Vent 6 kt de sud-ouest
Visibilité 10 km ou plus
Nuages épars à une hauteur de 4000 ft
Temporairement
du 19 à 12 UTC au 19 à 18 UTC
Vent 10 kt de nord-est
Probabilité 30% :
Temporairement
du 19 à 21 UTC au 20 à 03 UTC
pluie, bruine

TAF: LEXJ 190200Z 1903/2003 23006KT 9999 SCT040 TX21/1914Z TN12/1907Z TEMPO 1912/1918 04010KT PROB30 TEMPO 1921/2003 RADZ

Observations et prévisions météorologiques de plus de 4000 aéroports (messages METAR et TAF).

Les stations disponibles sont représentées par des disques jaunes et rouges sur la carte.

Passer la souris dessus pour voir le nom de la station.

Cliquer dessus pour voir les observations et prévisions météorologiques.

Pour changer de carte: cliquez sur les boutons verts avec une croix noire pour zoomer, sur le bouton vert avec un tiret pour effectuer un zoom arrière, ou sur les flèches vertes pour les cartes adjacentes.


METAR-TAF: